Time;durP1;ratioP1;P1;durP2;ratioP2;P2;SDS_P1;SDS_P2;PMS_P1;PMS_P2;Temp;Humidity;BMP_temperature;BMP_pressure;BME280_temperature;BME280_humidity;BME280_pressure;Samples;Min_cycle;Max_cycle;Signal;HPM_P1;HPM_P2
2023/04/20 00:02:06;;;;;;;5.83;3.30;;;5.60;99.90;;;;;;4859287;29;20443;-92
2023/04/20 00:04:32;;;;;;;6.63;3.40;;;5.40;99.90;;;;;;4860209;29;20423;-92
2023/04/20 00:06:58;;;;;;;6.00;3.60;;;5.40;99.90;;;;;;4858462;29;20423;-91
2023/04/20 00:09:25;;;;;;;5.50;3.17;;;5.50;99.90;;;;;;4859774;29;20434;-93
2023/04/20 00:11:51;;;;;;;9.43;3.00;;;5.50;99.90;;;;;;4857989;29;20510;-91
2023/04/20 00:14:16;;;;;;;5.35;2.83;;;5.50;99.90;;;;;;4859467;29;21163;-92
2023/04/20 00:16:42;;;;;;;5.93;3.20;;;5.50;99.90;;;;;;4859389;29;20487;-90
2023/04/20 00:19:08;;;;;;;6.82;3.03;;;5.90;99.90;;;;;;4859644;29;20462;-91
2023/04/20 00:21:34;;;;;;;7.80;2.90;;;5.90;99.90;;;;;;4859534;29;20951;-93
2023/04/20 00:24:00;;;;;;;7.50;2.47;;;6.00;99.90;;;;;;4859051;29;20433;-89
2023/04/20 00:26:26;;;;;;;8.18;3.08;;;5.80;99.90;;;;;;4860587;29;21262;-90
2023/04/20 00:28:52;;;;;;;5.38;2.85;;;6.10;99.90;;;;;;4858710;29;20411;-92
2023/04/20 00:31:18;;;;;;;5.13;2.30;;;6.10;99.90;;;;;;4860354;29;21111;-95
2023/04/20 00:33:44;;;;;;;6.88;2.53;;;6.30;99.90;;;;;;4859045;29;20474;-90
2023/04/20 00:36:10;;;;;;;5.18;2.20;;;6.20;99.90;;;;;;4859843;29;20514;-90
2023/04/20 00:38:35;;;;;;;5.75;2.53;;;6.30;99.90;;;;;;4859253;29;20426;-95
2023/04/20 00:41:01;;;;;;;7.23;2.40;;;6.20;99.90;;;;;;4858654;29;20443;-92
2023/04/20 00:43:27;;;;;;;5.35;2.20;;;6.20;99.90;;;;;;4860674;29;20475;-93
2023/04/20 00:45:53;;;;;;;4.63;2.20;;;6.40;99.90;;;;;;4859093;29;20427;-92
2023/04/20 00:48:19;;;;;;;4.25;2.22;;;6.30;99.90;;;;;;4860317;29;20801;-91
2023/04/20 00:50:45;;;;;;;4.85;2.40;;;6.40;99.90;;;;;;4858380;29;20407;-93
2023/04/20 00:53:12;;;;;;;5.75;2.30;;;6.30;99.90;;;;;;4860248;29;20415;-93
2023/04/20 00:55:38;;;;;;;6.15;2.28;;;6.40;99.90;;;;;;4858486;29;20498;-91
2023/04/20 00:58:05;;;;;;;6.30;2.30;;;6.40;99.90;;;;;;4859350;29;20478;-92
2023/04/20 01:00:32;;;;;;;5.55;2.33;;;6.30;99.90;;;;;;4859282;29;20458;-91
2023/04/20 01:02:57;;;;;;;4.53;1.80;;;6.40;99.90;;;;;;4858399;29;20458;-91
2023/04/20 01:05:23;;;;;;;5.90;2.25;;;6.70;99.90;;;;;;4860264;29;20425;-90
2023/04/20 01:07:49;;;;;;;5.05;1.90;;;6.40;99.90;;;;;;4858370;29;20442;-91
2023/04/20 01:10:15;;;;;;;6.10;1.80;;;6.30;99.90;;;;;;4859808;29;20431;-92
2023/04/20 01:12:41;;;;;;;5.15;1.63;;;6.30;99.90;;;;;;4858367;29;20415;-91
2023/04/20 01:15:07;;;;;;;5.47;1.60;;;6.30;99.90;;;;;;4858928;29;20431;-91
2023/04/20 01:17:39;;;;;;;6.25;1.65;;;6.20;99.90;;;;;;4858936;29;20443;-91
2023/04/20 01:20:11;;;;;;;6.17;1.73;;;6.60;99.90;;;;;;4858518;29;20425;-92
2023/04/20 01:22:48;;;;;;;5.32;1.90;;;6.30;99.90;;;;;;4859304;29;20494;-90
2023/04/20 01:25:14;;;;;;;4.25;1.40;;;6.30;99.90;;;;;;4858172;29;20522;-93
2023/04/20 01:27:40;;;;;;;5.73;1.73;;;6.30;99.90;;;;;;4859972;29;20977;-91
2023/04/20 01:30:07;;;;;;;5.05;1.90;;;6.50;99.90;;;;;;4858894;29;20885;-91
2023/04/20 01:32:33;;;;;;;7.57;1.60;;;6.30;99.90;;;;;;4859193;29;20424;-91
2023/04/20 01:34:59;;;;;;;3.28;1.25;;;6.20;99.90;;;;;;4858938;29;20419;-92
2023/04/20 01:37:25;;;;;;;5.27;1.60;;;6.80;99.90;;;;;;4858293;29;20421;-91
2023/04/20 01:39:51;;;;;;;5.77;1.80;;;6.50;99.90;;;;;;4859321;29;20945;-91
2023/04/20 01:42:17;;;;;;;5.63;1.75;;;6.80;99.90;;;;;;4857955;29;20453;-93
2023/04/20 01:44:42;;;;;;;5.40;1.38;;;6.30;99.90;;;;;;4859514;29;20413;-90
2023/04/20 01:47:08;;;;;;;5.27;1.90;;;6.50;99.90;;;;;;4858234;29;20426;-89
2023/04/20 01:49:33;;;;;;;4.83;1.60;;;7.00;99.90;;;;;;4861187;29;20434;-91
2023/04/20 01:51:59;;;;;;;6.40;1.30;;;6.40;99.90;;;;;;4862638;29;20421;-91
2023/04/20 01:54:25;;;;;;;5.53;1.60;;;6.50;99.90;;;;;;4862335;29;20434;-90
2023/04/20 01:56:51;;;;;;;4.40;1.70;;;6.40;99.90;;;;;;4862740;29;20418;-90
2023/04/20 01:59:16;;;;;;;5.00;1.40;;;6.40;99.90;;;;;;4862599;29;20418;-91
2023/04/20 02:01:42;;;;;;;6.22;1.48;;;6.50;99.90;;;;;;4863361;29;20470;-91
2023/04/20 02:04:08;;;;;;;5.87;1.40;;;5.90;99.90;;;;;;4861456;29;20427;-90
2023/04/20 02:06:33;;;;;;;4.43;1.50;;;6.50;99.90;;;;;;4863444;29;20415;-90
2023/04/20 02:08:59;;;;;;;5.03;1.65;;;6.00;99.90;;;;;;4861376;29;20481;-92
2023/04/20 02:11:25;;;;;;;4.60;1.60;;;6.00;99.90;;;;;;4862357;29;20425;-91
2023/04/20 02:13:51;;;;;;;4.10;1.30;;;5.90;99.90;;;;;;4862073;29;20426;-90
2023/04/20 02:16:18;;;;;;;7.07;1.50;;;5.90;99.90;;;;;;4861940;29;20434;-90
2023/04/20 02:18:44;;;;;;;6.22;1.70;;;6.10;99.90;;;;;;4862431;29;20415;-89
2023/04/20 02:21:10;;;;;;;5.65;1.70;;;5.80;99.90;;;;;;4861544;29;20447;-90
2023/04/20 02:23:36;;;;;;;6.65;1.83;;;5.80;99.90;;;;;;4862758;29;20505;-90
2023/04/20 02:26:02;;;;;;;6.45;1.80;;;6.30;99.90;;;;;;4861101;29;20458;-91
2023/04/20 02:28:28;;;;;;;8.88;2.35;;;5.70;99.90;;;;;;4862353;29;20487;-90
2023/04/20 02:30:53;;;;;;;5.82;1.67;;;6.10;99.90;;;;;;4862000;29;20853;-91
2023/04/20 02:33:20;;;;;;;7.53;1.83;;;6.00;99.90;;;;;;4861727;29;20433;-91
2023/04/20 02:35:46;;;;;;;5.47;2.00;;;6.10;99.90;;;;;;4861529;29;20430;-90
2023/04/20 02:38:12;;;;;;;5.90;2.03;;;6.80;99.90;;;;;;4861671;29;20501;-91
2023/04/20 02:40:38;;;;;;;7.63;2.00;;;6.10;99.90;;;;;;4862040;29;20554;-92
2023/04/20 02:43:06;;;;;;;5.65;1.70;;;6.30;99.90;;;;;;4860901;29;20419;-94
2023/04/20 02:45:32;;;;;;;8.50;2.07;;;6.20;99.90;;;;;;4862264;29;20419;-91
2023/04/20 02:47:58;;;;;;;7.10;2.20;;;6.40;99.90;;;;;;4860940;29;20429;-91
2023/04/20 02:50:23;;;;;;;6.47;2.03;;;6.80;99.90;;;;;;4861945;29;20415;-93
2023/04/20 02:52:49;;;;;;;5.80;2.10;;;6.40;99.90;;;;;;4861636;29;20486;-90
2023/04/20 02:55:14;;;;;;;6.10;2.47;;;6.50;99.90;;;;;;4860985;29;20411;-91
2023/04/20 02:57:43;;;;;;;8.10;2.55;;;6.60;99.90;;;;;;4862155;29;20418;-94
2023/04/20 03:00:12;;;;;;;9.70;2.50;;;6.80;99.90;;;;;;4860624;29;20430;-94
2023/04/20 03:02:38;;;;;;;7.43;2.35;;;6.60;99.90;;;;;;4862077;29;20804;-91
2023/04/20 03:05:04;;;;;;;9.07;2.50;;;6.80;99.90;;;;;;4860695;29;20518;-89
2023/04/20 03:07:30;;;;;;;6.25;2.33;;;6.70;99.90;;;;;;4877480;29;20445;-91
2023/04/20 03:09:56;;;;;;;6.50;2.20;;;7.40;99.90;;;;;;4860807;29;20423;-91
2023/04/20 03:12:22;;;;;;;7.13;2.17;;;6.80;99.90;;;;;;4861493;29;20506;-92
2023/04/20 03:14:47;;;;;;;7.30;2.23;;;6.90;99.90;;;;;;4861283;29;20469;-94
2023/04/20 03:17:13;;;;;;;7.97;2.30;;;6.90;99.90;;;;;;4860727;29;20442;-92
2023/04/20 03:19:40;;;;;;;6.60;2.00;;;7.00;99.90;;;;;;4862105;29;20466;-91
2023/04/20 03:22:06;;;;;;;8.40;2.28;;;7.00;99.90;;;;;;4859519;29;20475;-91
2023/04/20 03:24:31;;;;;;;9.03;2.53;;;7.60;99.90;;;;;;4861599;29;20435;-91
2023/04/20 03:26:57;;;;;;;6.37;2.40;;;6.90;99.90;;;;;;4860137;29;20442;-93
2023/04/20 03:29:23;;;;;;;5.83;2.20;;;7.30;99.90;;;;;;4861663;29;20492;-94
2023/04/20 03:31:49;;;;;;;7.50;2.30;;;6.90;99.90;;;;;;4861293;29;20439;-90
2023/04/20 03:34:15;;;;;;;5.45;1.85;;;7.30;99.90;;;;;;4861518;29;20460;-93
2023/04/20 03:36:40;;;;;;;8.65;2.38;;;7.10;99.90;;;;;;4861021;29;20463;-91
2023/04/20 03:39:06;;;;;;;6.68;1.98;;;7.30;99.90;;;;;;4860193;29;20462;-93
2023/04/20 03:41:32;;;;;;;8.63;2.23;;;7.20;99.90;;;;;;4862160;29;20442;-91
2023/04/20 03:43:57;;;;;;;8.85;2.30;;;7.30;99.90;;;;;;4859999;29;20431;-92
2023/04/20 03:46:23;;;;;;;7.50;2.00;;;7.40;99.90;;;;;;4862759;29;20426;-93
2023/04/20 03:48:49;;;;;;;5.70;1.97;;;7.60;99.90;;;;;;4859905;29;20423;-93
2023/04/20 03:51:14;;;;;;;5.77;1.97;;;7.30;99.90;;;;;;4861905;29;20419;-91
2023/04/20 03:53:43;;;;;;;6.80;1.83;;;7.40;99.90;;;;;;4860843;29;20426;-90
2023/04/20 03:56:09;;;;;;;6.33;1.80;;;7.30;99.90;;;;;;4861842;29;20502;-92
2023/04/20 03:58:34;;;;;;;6.50;1.70;;;7.30;99.90;;;;;;4861379;29;20995;-93
2023/04/20 04:01:11;;;;;;;5.68;1.80;;;7.50;99.90;;;;;;4861331;29;20898;-92
2023/04/20 04:03:37;;;;;;;4.88;1.55;;;7.50;99.90;;;;;;4861479;29;20415;-95
2023/04/20 04:06:04;;;;;;;8.65;1.80;;;7.70;99.90;;;;;;4860744;29;20931;-90
2023/04/20 04:08:31;;;;;;;6.37;1.57;;;7.60;99.90;;;;;;4861015;29;20415;-92
2023/04/20 04:10:56;;;;;;;5.93;1.47;;;7.60;99.90;;;;;;4859990;29;20423;-93
2023/04/20 04:13:22;;;;;;;5.57;1.53;;;7.70;99.90;;;;;;4861682;29;20414;-94
2023/04/20 04:15:48;;;;;;;6.05;1.80;;;7.90;99.90;;;;;;4862336;29;20419;-93
2023/04/20 04:18:14;;;;;;;7.65;1.60;;;7.90;99.90;;;;;;4860761;29;20430;-91
2023/04/20 04:20:40;;;;;;;6.03;1.30;;;8.20;99.90;;;;;;4860628;29;20422;-90
2023/04/20 04:23:05;;;;;;;5.40;1.88;;;7.90;99.90;;;;;;4860725;29;20453;-95
2023/04/20 04:25:32;;;;;;;7.65;1.63;;;8.50;99.90;;;;;;4861396;29;20415;-92
2023/04/20 04:28:01;;;;;;;5.97;1.30;;;7.80;99.90;;;;;;4861226;29;20415;-91
2023/04/20 04:30:27;;;;;;;5.15;1.40;;;8.00;99.90;;;;;;4861733;29;20422;-90
2023/04/20 04:32:56;;;;;;;4.40;1.40;;;7.90;99.90;;;;;;4860938;29;20427;-92
2023/04/20 04:35:40;;;;;;;6.22;1.40;;;7.90;99.90;;;;;;4877835;29;20560;-95
2023/04/20 04:38:06;;;;;;;5.13;1.23;;;8.00;99.90;;;;;;4861984;29;20423;-93
2023/04/20 04:40:35;;;;;;;4.38;1.58;;;8.00;99.90;;;;;;4862296;29;20426;-93
2023/04/20 04:43:01;;;;;;;4.50;1.52;;;8.10;99.90;;;;;;4860601;29;20538;-93
2023/04/20 04:48:36;;;;;;;4.72;1.45;;;7.90;99.90;;;;;;4895936;29;20418;-95
2023/04/20 04:51:03;;;;;;;3.35;0.98;;;7.90;99.90;;;;;;4864810;29;20465;-93
2023/04/20 04:53:29;;;;;;;3.85;1.20;;;8.10;99.90;;;;;;4862887;29;20418;-95
2023/04/20 04:56:02;;;;;;;4.13;1.00;;;7.90;99.90;;;;;;4859920;29;20924;-92
2023/04/20 04:58:30;;;;;;;4.78;1.02;;;7.90;99.90;;;;;;4870034;29;20951;-93
2023/04/20 05:01:19;;;;;;;4.35;1.00;;;7.90;98.90;;;;;;4875519;29;20938;-93
2023/04/20 05:03:47;;;;;;;3.80;1.17;;;7.90;98.60;;;;;;4864964;29;20417;-93
2023/04/20 05:06:18;;;;;;;4.15;1.00;;;7.90;96.60;;;;;;4865362;29;20438;-92
2023/04/20 05:08:49;;;;;;;3.72;1.13;;;8.10;95.90;;;;;;4864908;29;20412;-94
2023/04/20 05:11:15;;;;;;;3.92;1.08;;;8.10;95.30;;;;;;4862133;29;20415;-93
2023/04/20 05:13:44;;;;;;;3.65;1.27;;;8.50;97.00;;;;;;4865223;29;20459;-94
2023/04/20 05:16:10;;;;;;;2.85;0.93;;;8.50;96.90;;;;;;4864262;29;20423;-89
2023/04/20 05:18:35;;;;;;;3.83;1.00;;;8.30;97.60;;;;;;4863424;29;20844;-94
2023/04/20 05:21:06;;;;;;;5.80;1.13;;;8.50;97.40;;;;;;4861288;29;20502;-92
2023/04/20 05:23:32;;;;;;;3.03;1.00;;;8.30;98.20;;;;;;4861718;29;20419;-92
2023/04/20 05:26:01;;;;;;;4.90;0.97;;;8.60;96.50;;;;;;4859922;29;20604;-91
2023/04/20 05:28:26;;;;;;;5.95;1.38;;;8.50;97.10;;;;;;4862426;29;20450;-94
2023/04/20 05:30:55;;;;;;;4.10;0.97;;;8.40;96.50;;;;;;4859408;29;20486;-90
2023/04/20 05:33:21;;;;;;;3.33;1.07;;;8.70;96.40;;;;;;4859440;29;20491;-94
2023/04/20 05:35:47;;;;;;;4.93;0.90;;;9.10;97.50;;;;;;4876138;29;20439;-90
2023/04/20 05:38:13;;;;;;;6.28;0.88;;;8.50;97.90;;;;;;4877623;29;20424;-92
2023/04/20 05:40:39;;;;;;;4.87;1.30;;;8.60;98.30;;;;;;4880356;29;20855;-92
2023/04/20 05:43:04;;;;;;;5.60;1.30;;;8.50;98.80;;;;;;4877840;29;20413;-93
2023/04/20 05:45:32;;;;;;;5.47;1.17;;;8.50;99.90;;;;;;4879651;29;20425;-92
2023/04/20 05:47:58;;;;;;;4.93;1.35;;;8.60;99.40;;;;;;4877739;29;20417;-94
2023/04/20 05:50:26;;;;;;;4.33;1.10;;;8.50;99.90;;;;;;4878873;29;20415;-91
2023/04/20 05:52:55;;;;;;;5.97;1.35;;;8.50;99.90;;;;;;4877230;29;20421;-94
2023/04/20 05:55:29;;;;;;;5.03;1.30;;;8.60;99.60;;;;;;4881271;29;20425;-93
2023/04/20 05:57:55;;;;;;;8.30;1.30;;;8.50;98.30;;;;;;4880418;29;20433;-94
2023/04/20 06:00:22;;;;;;;3.20;1.10;;;9.00;99.40;;;;;;4880059;29;20457;-92
2023/04/20 06:02:48;;;;;;;4.85;1.08;;;8.60;99.90;;;;;;4859366;29;20448;-91
2023/04/20 06:05:14;;;;;;;5.78;1.30;;;8.80;99.90;;;;;;4863427;29;21003;-93
2023/04/20 06:07:42;;;;;;;5.05;1.13;;;8.70;99.90;;;;;;4858963;29;20455;-95
2023/04/20 06:10:08;;;;;;;6.03;1.42;;;8.70;99.90;;;;;;4861032;29;20415;-93
2023/04/20 06:12:49;;;;;;;4.87;1.40;;;8.70;99.90;;;;;;4860242;29;20438;-94
2023/04/20 06:15:15;;;;;;;5.67;1.20;;;8.80;99.90;;;;;;4862519;29;20512;-92
2023/04/20 06:17:47;;;;;;;5.03;1.30;;;9.00;99.90;;;;;;4863706;29;20420;-94
2023/04/20 06:20:12;;;;;;;3.72;0.90;;;9.00;99.90;;;;;;4862512;29;20453;-93
2023/04/20 06:22:45;;;;;;;5.25;1.00;;;8.80;99.90;;;;;;4878736;29;20436;-92
2023/04/20 06:25:12;;;;;;;3.78;1.38;;;9.20;99.90;;;;;;4877553;29;20528;-93
2023/04/20 06:27:38;;;;;;;2.70;1.10;;;9.20;99.90;;;;;;4843710;29;20424;-93
2023/04/20 06:30:04;;;;;;;4.70;1.33;;;9.10;99.90;;;;;;4877547;29;20420;-93
2023/04/20 06:32:33;;;;;;;6.10;1.50;;;8.80;99.90;;;;;;4873334;29;20515;-91
2023/04/20 06:34:58;;;;;;;4.05;1.10;;;8.80;99.90;;;;;;4845747;29;20429;-93
2023/04/20 06:37:42;;;;;;;4.18;1.30;;;8.90;99.90;;;;;;4846826;29;20436;-93
2023/04/20 06:40:41;;;;;;;5.10;1.40;;;8.50;99.90;;;;;;4880290;29;20640;-93
2023/04/20 06:43:07;;;;;;;4.30;1.17;;;8.60;99.90;;;;;;4848902;29;20448;-94
2023/04/20 06:45:33;;;;;;;3.95;1.20;;;8.70;99.90;;;;;;4855445;29;20429;-92
2023/04/20 06:48:14;;;;;;;3.90;1.00;;;8.60;99.90;;;;;;4856309;29;20609;-94
2023/04/20 06:51:01;;;;;;;4.47;1.00;;;8.30;99.90;;;;;;4852273;29;20433;-96
2023/04/20 06:53:30;;;;;;;2.95;0.95;;;8.30;99.90;;;;;;4851460;29;20437;-94
2023/04/20 06:56:01;;;;;;;4.80;1.10;;;8.00;99.90;;;;;;4850637;29;20513;-94
2023/04/20 06:58:30;;;;;;;5.13;1.20;;;8.30;99.90;;;;;;4881319;29;20428;-94
2023/04/20 07:00:55;;;;;;;4.93;1.40;;;8.20;99.90;;;;;;4847496;29;20440;-91
2023/04/20 07:03:21;;;;;;;5.07;1.50;;;8.00;99.90;;;;;;4847230;29;20416;-94
2023/04/20 07:06:01;;;;;;;5.72;1.70;;;7.80;99.90;;;;;;4847872;29;20498;-94
2023/04/20 07:08:28;;;;;;;5.10;1.90;;;8.20;99.90;;;;;;4855522;29;20498;-94
2023/04/20 07:10:56;;;;;;;5.00;1.77;;;7.80;99.90;;;;;;4877248;29;20411;-95
2023/04/20 07:13:22;;;;;;;5.55;1.80;;;7.90;99.90;;;;;;4870034;29;20456;-94
2023/04/20 07:15:48;;;;;;;4.00;1.90;;;7.60;99.90;;;;;;4857153;29;20513;-94
2023/04/20 07:18:14;;;;;;;6.95;2.33;;;7.70;99.90;;;;;;4878337;29;20982;-94
2023/04/20 07:20:39;;;;;;;5.80;2.40;;;7.60;99.90;;;;;;4850244;29;20810;-94
2023/04/20 07:23:05;;;;;;;5.40;2.20;;;7.50;99.90;;;;;;4865490;29;20426;-94
2023/04/20 07:25:31;;;;;;;6.55;2.42;;;7.60;99.90;;;;;;4881503;29;20483;-94
2023/04/20 07:28:16;;;;;;;6.87;2.33;;;7.50;99.90;;;;;;4871016;29;21035;-95
2023/04/20 07:30:47;;;;;;;7.20;2.75;;;7.90;99.90;;;;;;4865280;29;20415;-95
2023/04/20 07:33:13;;;;;;;7.03;2.33;;;7.70;99.90;;;;;;4868737;29;20876;-93
2023/04/20 07:35:45;;;;;;;7.13;2.63;;;7.80;99.90;;;;;;4867073;29;20431;-95
2023/04/20 07:38:10;;;;;;;6.72;2.53;;;7.70;99.90;;;;;;4865774;29;20910;-95
2023/04/20 07:40:36;;;;;;;7.25;2.90;;;7.70;99.90;;;;;;4869752;29;20451;-95
2023/04/20 07:43:05;;;;;;;5.00;2.50;;;7.80;99.90;;;;;;4874303;29;20427;-94
2023/04/20 07:45:48;;;;;;;8.52;3.08;;;7.90;99.90;;;;;;4886808;29;20904;-95
2023/04/20 07:49:02;;;;;;;4.78;2.83;;;7.90;99.90;;;;;;4888415;29;20441;-95
2023/04/20 07:51:37;;;;;;;5.25;2.60;;;7.80;99.90;;;;;;4869390;29;20431;-95
2023/04/20 07:54:12;;;;;;;5.90;2.88;;;7.90;99.90;;;;;;4872825;29;20427;-94
2023/04/20 07:56:57;;;;;;;6.13;2.78;;;7.80;99.90;;;;;;4888622;29;20406;-92
2023/04/20 08:00:06;;;;;;;6.13;2.88;;;8.00;99.90;;;;;;4864882;29;20429;-95
2023/04/20 08:02:37;;;;;;;6.85;3.13;;;7.90;99.90;;;;;;4864534;29;20449;-95
2023/04/20 08:05:07;;;;;;;6.32;2.92;;;8.00;99.90;;;;;;4864132;29;20430;-95
2023/04/20 08:08:00;;;;;;;4.97;2.80;;;8.00;99.90;;;;;;4898531;29;20404;-94
2023/04/20 08:10:35;;;;;;;6.60;3.00;;;8.30;99.90;;;;;;4877030;29;20608;-93
2023/04/20 08:13:15;;;;;;;4.90;2.67;;;8.10;99.90;;;;;;4882890;29;21391;-95
2023/04/20 08:19:11;;;;;;;4.82;2.60;;;8.50;99.90;;;;;;4891678;29;20413;-94
2023/04/20 08:21:41;;;;;;;4.75;2.08;;;8.80;99.90;;;;;;4882784;29;20437;-94
2023/04/20 08:24:08;;;;;;;7.40;3.00;;;8.80;99.90;;;;;;4880312;29;20512;-92
2023/04/20 08:26:38;;;;;;;4.65;2.80;;;8.80;99.90;;;;;;4884167;29;20488;-94
2023/04/20 08:29:06;;;;;;;5.03;2.67;;;8.70;99.90;;;;;;4879650;29;20429;-94
2023/04/20 08:31:35;;;;;;;8.27;3.00;;;8.60;99.90;;;;;;4884389;29;20445;-95
2023/04/20 08:34:01;;;;;;;4.10;2.40;;;8.70;99.90;;;;;;4880863;29;20425;-95
2023/04/20 08:36:27;;;;;;;5.10;2.75;;;8.80;99.90;;;;;;4885001;29;20429;-94
2023/04/20 08:39:06;;;;;;;5.82;2.67;;;8.90;99.90;;;;;;4882929;29;20472;-94
2023/04/20 08:41:32;;;;;;;6.38;2.95;;;8.60;99.90;;;;;;4883951;29;20500;-95
2023/04/20 08:44:01;;;;;;;5.95;2.40;;;8.70;99.90;;;;;;4880817;29;20503;-95
2023/04/20 08:46:27;;;;;;;7.43;3.03;;;8.60;99.90;;;;;;4882905;29;20425;-94
2023/04/20 08:48:56;;;;;;;4.88;2.72;;;8.70;99.90;;;;;;4882148;29;21013;-94
2023/04/20 08:51:23;;;;;;;5.18;2.40;;;8.80;99.90;;;;;;4884740;29;20728;-94
2023/04/20 08:53:53;;;;;;;4.68;3.00;;;9.20;99.90;;;;;;4888585;29;20510;-94
2023/04/20 08:56:19;;;;;;;5.07;2.80;;;9.10;99.90;;;;;;4886127;29;20429;-95
2023/04/20 08:58:49;;;;;;;4.35;2.50;;;9.00;99.90;;;;;;4881759;29;20488;-92
2023/04/20 09:01:28;;;;;;;6.82;3.20;;;9.20;99.90;;;;;;4887565;29;20806;-95
2023/04/20 09:03:59;;;;;;;6.03;2.80;;;8.90;99.90;;;;;;4882451;29;20520;-94
2023/04/20 09:06:46;;;;;;;7.22;3.10;;;8.80;99.90;;;;;;4885263;29;20421;-94
2023/04/20 09:09:24;;;;;;;5.20;3.00;;;8.80;99.90;;;;;;4882890;29;20421;-93
2023/04/20 09:12:09;;;;;;;6.60;2.58;;;8.70;99.90;;;;;;4883389;29;20425;-94
2023/04/20 09:15:00;;;;;;;5.15;3.03;;;8.70;99.90;;;;;;4864195;29;20541;-94
2023/04/20 09:17:46;;;;;;;4.50;3.13;;;8.70;99.90;;;;;;4887504;29;20451;-96
2023/04/20 09:20:29;;;;;;;5.97;3.30;;;8.70;99.90;;;;;;4877650;29;20433;-94
2023/04/20 09:23:04;;;;;;;5.90;3.20;;;8.80;99.90;;;;;;4881062;29;20437;-94
2023/04/20 09:25:42;;;;;;;5.53;3.43;;;8.80;99.90;;;;;;4885803;29;20467;-95
2023/04/20 09:31:28;;;;;;;4.63;3.20;;;9.10;99.90;;;;;;4896291;29;20413;-95
2023/04/20 09:34:06;;;;;;;5.95;3.30;;;9.10;99.90;;;;;;4885155;29;20417;-94
2023/04/20 09:36:42;;;;;;;5.80;3.30;;;9.10;99.90;;;;;;4887398;29;20457;-95
2023/04/20 09:39:16;;;;;;;6.22;3.28;;;9.10;99.90;;;;;;4880959;29;20417;-95
2023/04/20 09:42:15;;;;;;;6.18;3.33;;;9.20;99.90;;;;;;4882175;29;20479;-93
2023/04/20 09:44:42;;;;;;;5.93;3.35;;;9.30;99.90;;;;;;4868536;29;20437;-94
2023/04/20 09:47:20;;;;;;;6.27;3.80;;;9.30;99.90;;;;;;4881581;29;20415;-94
2023/04/20 09:49:49;;;;;;;6.70;3.40;;;9.40;99.90;;;;;;4862073;29;20526;-94
2023/04/20 09:52:36;;;;;;;7.13;3.40;;;9.50;99.90;;;;;;4876226;29;20424;-93
2023/04/20 09:55:06;;;;;;;6.40;3.40;;;9.70;99.90;;;;;;4863375;29;20423;-92
2023/04/20 09:57:37;;;;;;;5.63;3.70;;;9.80;99.90;;;;;;4881463;29;20540;-92
2023/04/20 10:00:11;;;;;;;5.60;3.65;;;10.50;99.90;;;;;;4883745;29;20453;-95
2023/04/20 10:02:47;;;;;;;6.38;3.00;;;10.10;99.90;;;;;;4895630;29;20456;-94
2023/04/20 10:05:13;;;;;;;7.13;3.67;;;10.50;99.90;;;;;;4887443;29;20413;-93
2023/04/20 10:07:41;;;;;;;5.32;3.40;;;10.50;99.90;;;;;;4886808;29;20456;-93
2023/04/20 10:10:15;;;;;;;5.77;3.10;;;10.80;99.90;;;;;;4884666;29;20427;-91
2023/04/20 10:16:01;;;;;;;5.88;3.05;;;10.80;99.90;;;;;;4897921;29;20780;-93
2023/04/20 10:18:27;;;;;;;6.15;3.53;;;10.90;99.90;;;;;;4886271;29;20414;-93
2023/04/20 10:21:23;;;;;;;7.05;3.08;;;11.00;99.90;;;;;;4889078;29;20417;-95
2023/04/20 10:23:50;;;;;;;5.20;3.40;;;11.10;99.90;;;;;;4872487;29;20427;-93
2023/04/20 10:26:16;;;;;;;5.30;3.40;;;11.10;99.90;;;;;;4884879;29;20458;-94
2023/04/20 10:28:49;;;;;;;5.03;3.20;;;11.00;99.90;;;;;;4890089;29;20419;-95
2023/04/20 10:31:24;;;;;;;5.65;3.60;;;11.20;99.90;;;;;;4871899;29;20422;-95
2023/04/20 10:34:04;;;;;;;5.30;3.13;;;10.90;99.90;;;;;;4870706;29;20447;-94
2023/04/20 10:36:51;;;;;;;5.22;3.10;;;10.90;99.90;;;;;;4874241;29;20430;-93
2023/04/20 10:39:22;;;;;;;6.57;3.70;;;10.90;99.90;;;;;;4869571;29;20423;-94
2023/04/20 10:41:57;;;;;;;5.18;3.30;;;10.90;99.90;;;;;;4871745;29;20450;-95
2023/04/20 10:44:26;;;;;;;5.97;3.42;;;10.60;99.90;;;;;;4869105;29;20452;-95
2023/04/20 10:46:56;;;;;;;5.53;3.72;;;10.50;99.90;;;;;;4884966;29;20419;-94
2023/04/20 10:49:30;;;;;;;5.38;3.45;;;10.40;99.90;;;;;;4884328;29;20441;-94
2023/04/20 10:51:56;;;;;;;5.57;3.95;;;10.20;99.90;;;;;;4870008;29;20427;-94
2023/04/20 10:54:22;;;;;;;6.47;3.92;;;10.10;99.90;;;;;;4870016;29;20454;-93
2023/04/20 10:57:01;;;;;;;5.53;3.63;;;10.00;99.90;;;;;;4866924;29;20421;-94
2023/04/20 10:59:31;;;;;;;7.18;4.25;;;9.90;99.90;;;;;;4883740;29;20483;-93
2023/04/20 11:02:00;;;;;;;5.75;4.03;;;9.70;99.90;;;;;;4882566;29;20466;-93
2023/04/20 11:04:35;;;;;;;4.97;4.10;;;9.90;99.90;;;;;;4866140;29;20419;-94
2023/04/20 11:07:09;;;;;;;5.95;4.57;;;10.10;99.90;;;;;;4868514;29;20438;-95
2023/04/20 11:09:37;;;;;;;5.50;4.20;;;9.70;99.90;;;;;;4882750;29;20489;-91
2023/04/20 11:12:16;;;;;;;7.10;4.40;;;9.70;99.90;;;;;;4885725;29;20504;-94
2023/04/20 11:15:05;;;;;;;6.40;4.80;;;9.70;99.90;;;;;;4883956;29;20494;-94
2023/04/20 11:17:42;;;;;;;6.15;4.35;;;9.50;99.90;;;;;;4898692;29;20549;-93
2023/04/20 11:21:01;;;;;;;6.45;4.50;;;9.60;99.90;;;;;;4885197;29;20858;-93
2023/04/20 11:23:37;;;;;;;7.10;4.70;;;9.40;99.90;;;;;;4834726;29;20451;-94
2023/04/20 11:26:09;;;;;;;5.88;4.40;;;9.10;99.90;;;;;;4884062;29;20899;-92
2023/04/20 11:28:35;;;;;;;6.78;4.57;;;9.50;99.90;;;;;;4886875;29;20425;-93
2023/04/20 11:31:15;;;;;;;6.05;4.82;;;9.40;99.90;;;;;;4884937;29;20432;-92
2023/04/20 11:33:46;;;;;;;6.90;4.38;;;9.90;99.90;;;;;;4883325;29;20524;-95
2023/04/20 11:36:27;;;;;;;6.93;4.65;;;9.70;99.90;;;;;;4884685;29;20945;-92
2023/04/20 11:38:53;;;;;;;6.38;4.50;;;9.80;99.90;;;;;;4885162;29;20431;-93
2023/04/20 11:41:19;;;;;;;6.13;4.47;;;9.70;99.90;;;;;;4884477;29;20456;-93
2023/04/20 11:43:45;;;;;;;7.72;4.80;;;10.00;99.90;;;;;;4881780;29;20912;-91
2023/04/20 11:46:20;;;;;;;6.68;4.75;;;10.50;99.90;;;;;;4881174;29;20405;-93
2023/04/20 11:48:49;;;;;;;7.15;4.75;;;10.20;99.90;;;;;;4882272;29;20428;-95
2023/04/20 11:51:17;;;;;;;7.13;5.10;;;10.30;99.90;;;;;;4898908;29;20436;-93
2023/04/20 11:53:43;;;;;;;8.97;4.93;;;10.10;99.90;;;;;;4883355;29;20409;-95
2023/04/20 11:56:09;;;;;;;7.53;5.33;;;10.50;99.90;;;;;;4881881;29;20424;-92
2023/04/20 11:58:35;;;;;;;7.18;5.13;;;10.20;99.90;;;;;;4883702;29;20461;-95
2023/04/20 12:01:30;;;;;;;7.15;5.38;;;10.50;99.90;;;;;;4885813;29;20437;-94
2023/04/20 12:04:06;;;;;;;;;;;;;;;;;;;;;
2023/04/20 12:06:35;;;;;;;7.10;4.90;;;10.50;99.90;;;;;;4898896;29;20433;-95
2023/04/20 12:09:18;;;;;;;7.47;5.07;;;10.80;99.90;;;;;;4866850;29;20537;-93
2023/04/20 12:11:44;;;;;;;8.02;5.50;;;10.80;99.90;;;;;;4883099;29;20505;-94
2023/04/20 12:14:45;;;;;;;8.27;5.07;;;10.90;99.90;;;;;;4880422;29;20485;-93
2023/04/20 12:17:10;;;;;;;6.75;4.93;;;10.90;99.90;;;;;;4880534;29;20421;-92
2023/04/20 12:19:36;;;;;;;6.75;5.22;;;11.00;99.90;;;;;;4880539;29;20465;-93
2023/04/20 12:22:02;;;;;;;7.73;5.20;;;11.30;99.90;;;;;;4880647;29;20488;-93
2023/04/20 12:24:37;;;;;;;7.33;5.43;;;11.20;99.90;;;;;;4890305;29;20418;-95
2023/04/20 12:27:06;;;;;;;6.47;5.15;;;11.50;99.90;;;;;;4884388;29;20418;-93
2023/04/20 12:29:33;;;;;;;7.65;5.38;;;11.90;99.90;;;;;;4883402;29;20453;-95
2023/04/20 12:32:01;;;;;;;7.40;5.60;;;12.60;99.90;;;;;;4883691;29;20417;-93
2023/04/20 12:35:02;;;;;;;8.25;5.53;;;13.00;99.90;;;;;;4885653;29;20560;-95
2023/04/20 12:37:31;;;;;;;7.57;5.82;;;13.10;99.90;;;;;;4888799;29;20429;-94
2023/04/20 12:39:59;;;;;;;6.63;5.68;;;13.20;99.90;;;;;;4886207;29;20413;-93
2023/04/20 12:42:31;;;;;;;7.27;5.80;;;13.20;99.90;;;;;;4887547;29;20444;-94
2023/04/20 12:45:09;;;;;;;8.02;6.10;;;13.10;99.90;;;;;;4884758;29;20425;-93
2023/04/20 12:47:53;;;;;;;10.00;6.50;;;12.90;99.80;;;;;;4888039;29;20782;-95
2023/04/20 12:50:26;;;;;;;7.97;6.80;;;12.70;99.90;;;;;;4886141;29;20421;-93
2023/04/20 12:52:57;;;;;;;8.38;6.88;;;12.80;99.90;;;;;;4879762;29;20778;-94
2023/04/20 12:55:23;;;;;;;7.82;7.03;;;12.70;99.90;;;;;;4865627;29;20441;-93
2023/04/20 12:58:04;;;;;;;7.78;6.85;;;12.70;99.90;;;;;;4883025;29;20968;-95
2023/04/20 13:00:29;;;;;;;7.78;6.97;;;12.50;99.90;;;;;;4864539;29;20433;-92
2023/04/20 13:03:03;;;;;;;7.97;7.00;;;12.50;99.90;;;;;;4868989;29;20427;-93
2023/04/20 13:06:04;;;;;;;8.50;7.50;;;12.70;99.90;;;;;;4832606;29;20529;-93
2023/04/20 13:08:33;;;;;;;8.43;7.32;;;12.40;99.90;;;;;;4840636;29;20492;-94
2023/04/20 13:10:58;;;;;;;8.43;6.90;;;12.10;99.90;;;;;;4823690;29;20432;-92
2023/04/20 13:13:30;;;;;;;8.33;7.50;;;12.30;99.90;;;;;;4845461;29;20995;-94
2023/04/20 13:15:55;;;;;;;8.02;7.22;;;12.50;99.90;;;;;;4839592;29;20441;-91
2023/04/20 13:18:24;;;;;;;8.60;7.70;;;13.50;99.90;;;;;;4843973;29;20420;-94
2023/04/20 13:20:53;;;;;;;7.68;6.88;;;14.00;98.90;;;;;;4840200;29;20922;-93
2023/04/20 13:23:25;;;;;;;7.57;6.78;;;14.10;92.30;;;;;;4860162;29;20575;-96
2023/04/20 13:26:01;;;;;;;7.57;6.78;;;14.20;91.70;;;;;;4842142;29;20504;-94